Time;durP1;ratioP1;P1;durP2;ratioP2;P2;SDS_P1;SDS_P2;PMS_P1;PMS_P2;Temp;Humidity;BMP_temperature;BMP_pressure;BME280_temperature;BME280_humidity;BME280_pressure;Samples;Min_cycle;Max_cycle;Signal;HPM_P1;HPM_P2
2022/09/17 12:56:16;;;;;;;6.30;1.35;;;16.30;99.90;;;;;;5120542;27;20815;-82
2022/09/17 12:59:19;;;;;;;9.10;1.52;;;16.50;99.90;;;;;;5096660;28;20098;-79
2022/09/17 13:01:54;;;;;;;9.40;1.60;;;16.50;99.90;;;;;;5100319;28;20071;-80
2022/09/17 13:04:41;;;;;;;9.82;1.80;;;16.50;99.90;;;;;;5102652;28;20055;-81
2022/09/17 13:07:23;;;;;;;9.70;1.58;;;16.50;99.90;;;;;;5101547;28;20051;-79
2022/09/17 13:10:11;;;;;;;14.07;1.92;;;16.80;99.90;;;;;;5107981;28;20058;-82
2022/09/17 13:12:52;;;;;;;7.45;1.35;;;17.00;99.90;;;;;;5102480;28;20051;-83
2022/09/17 13:15:53;;;;;;;10.10;1.40;;;17.00;99.90;;;;;;5101297;28;20066;-81
2022/09/17 13:18:34;;;;;;;6.30;1.63;;;16.50;99.90;;;;;;5098983;28;20127;-82
2022/09/17 13:21:04;;;;;;;5.15;1.23;;;15.50;99.90;;;;;;5098767;28;20543;-82
2022/09/17 13:23:54;;;;;;;5.93;1.02;;;15.00;99.90;;;;;;5103719;28;20048;-82
2022/09/17 13:26:33;;;;;;;9.80;1.42;;;14.70;99.90;;;;;;5099359;28;20043;-82
2022/09/17 13:29:00;;;;;;;9.23;1.52;;;14.60;99.90;;;;;;5132070;27;20048;-81
2022/09/17 13:31:37;;;;;;;4.95;1.30;;;14.70;99.90;;;;;;5109470;28;20062;-84
2022/09/17 13:34:18;;;;;;;6.50;1.98;;;14.70;99.90;;;;;;5099057;28;20449;-81
2022/09/17 13:37:19;;;;;;;11.80;1.85;;;14.80;99.90;;;;;;5105862;28;20039;-80
2022/09/17 13:39:52;;;;;;;13.25;2.03;;;14.90;99.90;;;;;;5093251;28;20090;-83
2022/09/17 13:42:20;;;;;;;9.82;1.50;;;15.00;99.90;;;;;;5096444;28;20055;-81
2022/09/17 13:45:09;;;;;;;15.00;1.88;;;15.10;99.90;;;;;;5094425;28;20574;-81
2022/09/17 13:47:37;;;;;;;5.55;1.70;;;15.20;99.90;;;;;;5087388;28;20075;-81
2022/09/17 13:50:23;;;;;;;10.05;1.30;;;15.40;99.90;;;;;;5128055;28;20055;-80
2022/09/17 13:53:14;;;;;;;8.75;1.50;;;15.60;99.90;;;;;;5094264;28;20052;-81
2022/09/17 13:55:49;;;;;;;12.50;1.88;;;15.70;99.90;;;;;;5094721;28;20081;-79
2022/09/17 13:58:17;;;;;;;9.30;2.08;;;15.60;99.90;;;;;;5091758;28;20052;-81
2022/09/17 14:01:02;;;;;;;12.95;1.63;;;15.40;99.90;;;;;;5105697;28;20149;-82
2022/09/17 14:03:29;;;;;;;12.43;1.50;;;15.20;99.90;;;;;;5106592;28;20123;-80
2022/09/17 14:06:17;;;;;;;11.05;1.40;;;15.00;99.90;;;;;;5077574;28;20403;-82
2022/09/17 14:09:02;;;;;;;8.15;1.17;;;14.90;99.90;;;;;;5093241;28;20446;-80
2022/09/17 14:11:28;;;;;;;5.75;1.15;;;14.90;99.90;;;;;;5090771;28;20059;-80
2022/09/17 14:14:14;;;;;;;12.88;1.65;;;14.80;99.90;;;;;;5089122;28;20032;-81
2022/09/17 14:16:45;;;;;;;9.88;1.40;;;14.70;99.90;;;;;;5091304;28;20040;-81
2022/09/17 14:19:38;;;;;;;6.53;0.88;;;14.50;99.90;;;;;;5095719;28;20060;-81
2022/09/17 14:22:07;;;;;;;4.53;0.75;;;14.30;99.90;;;;;;5071444;28;20040;-81
2022/09/17 14:24:43;;;;;;;5.80;0.93;;;13.90;99.90;;;;;;5077407;28;20083;-86
2022/09/17 14:27:56;;;;;;;6.53;1.38;;;13.60;99.90;;;;;;5084246;28;20093;-85
2022/09/17 14:30:23;;;;;;;2.05;0.60;;;13.50;99.90;;;;;;5096351;27;20052;-86
2022/09/17 14:32:54;;;;;;;2.53;0.50;;;13.40;99.90;;;;;;5076145;28;20060;-84
2022/09/17 14:35:49;;;;;;;4.72;0.80;;;13.50;99.90;;;;;;5083531;28;20119;-84
2022/09/17 14:38:33;;;;;;;3.55;0.50;;;13.60;99.90;;;;;;5074940;28;20063;-81
2022/09/17 14:41:29;;;;;;;4.78;0.80;;;13.70;99.90;;;;;;5083410;28;20083;-81
2022/09/17 14:44:16;;;;;;;7.90;0.90;;;13.70;99.90;;;;;;5072157;28;20083;-80
2022/09/17 14:46:45;;;;;;;4.10;0.60;;;13.60;99.90;;;;;;5078275;28;20053;-81
2022/09/17 14:49:23;;;;;;;3.47;0.80;;;13.50;99.90;;;;;;5077037;28;20059;-81
2022/09/17 14:51:51;;;;;;;3.88;0.80;;;13.50;99.90;;;;;;5079718;28;20048;-82
2022/09/17 14:54:20;;;;;;;4.38;0.70;;;13.40;99.90;;;;;;5060003;28;20060;-85
2022/09/17 14:57:07;;;;;;;2.95;0.50;;;13.30;99.90;;;;;;5081623;28;20049;-81
2022/09/17 14:59:33;;;;;;;3.70;0.70;;;13.30;99.90;;;;;;5106607;27;20051;-83
2022/09/17 15:01:59;;;;;;;2.92;0.68;;;13.30;99.90;;;;;;5069300;28;20051;-81
2022/09/17 15:04:26;;;;;;;5.95;0.55;;;13.30;99.90;;;;;;5076291;28;20078;-83
2022/09/17 15:07:04;;;;;;;2.13;0.60;;;13.30;99.90;;;;;;5078103;28;20059;-83
2022/09/17 15:09:30;;;;;;;3.47;0.90;;;13.40;99.90;;;;;;5077106;28;20413;-81
2022/09/17 15:11:59;;;;;;;4.10;0.60;;;13.50;99.90;;;;;;5080625;28;20040;-82
2022/09/17 15:14:31;;;;;;;7.07;0.70;;;13.50;99.90;;;;;;5075055;28;20465;-82
2022/09/17 15:17:02;;;;;;;4.00;0.55;;;13.40;99.90;;;;;;5070736;28;20578;-81
2022/09/17 15:19:37;;;;;;;5.20;1.13;;;13.40;99.90;;;;;;5108428;27;20084;-80
2022/09/17 15:22:14;;;;;;;5.32;0.57;;;13.50;99.90;;;;;;5073227;28;20435;-80
2022/09/17 15:25:13;;;;;;;3.40;0.50;;;13.70;99.90;;;;;;5073942;28;20044;-83
2022/09/17 15:27:41;;;;;;;4.57;0.80;;;13.80;99.90;;;;;;5073463;28;20056;-85
2022/09/17 15:30:19;;;;;;;5.88;0.75;;;13.80;99.90;;;;;;5077569;28;20455;-84
2022/09/17 15:32:52;;;;;;;3.45;0.75;;;13.70;99.90;;;;;;5074087;28;20048;-82
2022/09/17 15:35:28;;;;;;;4.82;1.00;;;13.80;99.90;;;;;;5076937;28;20040;-81
2022/09/17 15:38:03;;;;;;;7.82;1.83;;;13.80;99.90;;;;;;5106742;27;20039;-83
2022/09/17 15:40:36;;;;;;;6.50;0.88;;;13.80;99.90;;;;;;5087073;28;20126;-83
2022/09/17 15:43:02;;;;;;;3.58;0.70;;;13.90;99.90;;;;;;5074878;28;20456;-83
2022/09/17 15:45:30;;;;;;;2.00;0.80;;;13.90;99.90;;;;;;5076116;28;20048;-81
2022/09/17 15:48:00;;;;;;;2.20;0.63;;;14.00;99.90;;;;;;5079206;28;20047;-82
2022/09/17 15:50:27;;;;;;;7.35;0.70;;;14.00;99.90;;;;;;5065955;28;20135;-82
2022/09/17 15:53:08;;;;;;;4.53;1.00;;;14.20;99.90;;;;;;5070949;28;20048;-82
2022/09/17 15:55:47;;;;;;;2.15;0.70;;;14.30;99.90;;;;;;5067914;28;20048;-81
2022/09/17 15:58:26;;;;;;;4.55;0.88;;;14.30;99.90;;;;;;5067892;28;20044;-82
2022/09/17 16:01:27;;;;;;;8.18;1.27;;;14.30;99.90;;;;;;5065434;28;20044;-83
2022/09/17 16:04:01;;;;;;;4.53;1.05;;;14.30;99.90;;;;;;5057909;28;20044;-82
2022/09/17 16:06:27;;;;;;;5.38;0.95;;;14.20;99.90;;;;;;5061251;28;20401;-81
2022/09/17 16:08:59;;;;;;;8.10;1.55;;;14.10;99.90;;;;;;5080777;28;20048;-81
2022/09/17 16:11:26;;;;;;;;;;;14.00;99.90;;;;;;5081460;28;20127;-86
2022/09/17 16:13:53;;;;;;;7.05;1.02;;;13.90;99.90;;;;;;5064888;28;20265;-87
2022/09/17 16:16:22;;;;;;;4.82;0.85;;;13.80;99.90;;;;;;5075793;28;20473;-86
2022/09/17 16:18:49;;;;;;;7.47;0.93;;;13.70;99.90;;;;;;5083338;28;20075;-83
2022/09/17 16:21:16;;;;;;;5.25;1.27;;;13.70;99.90;;;;;;5078940;28;20056;-85
2022/09/17 16:23:43;;;;;;;7.15;0.95;;;13.60;99.90;;;;;;5084191;28;20118;-83
2022/09/17 16:26:16;;;;;;;27.85;11.10;;;13.60;99.90;;;;;;5059938;28;20048;-83
2022/09/17 16:28:44;;;;;;;11.07;4.38;;;13.50;99.90;;;;;;5076890;28;20767;-82
2022/09/17 16:31:13;;;;;;;13.75;2.55;;;13.40;99.90;;;;;;5074899;28;20059;-81
2022/09/17 16:33:39;;;;;;;5.55;1.20;;;13.40;99.90;;;;;;5082098;28;20528;-83
2022/09/17 16:36:06;;;;;;;6.30;1.63;;;13.30;99.90;;;;;;5071974;28;20045;-86
2022/09/17 16:38:32;;;;;;;5.80;1.02;;;13.20;99.90;;;;;;5074223;28;20055;-83
2022/09/17 16:40:57;;;;;;;6.90;1.30;;;13.10;99.90;;;;;;5076442;28;20044;-82
2022/09/17 16:43:23;;;;;;;8.13;1.23;;;13.00;99.90;;;;;;5079338;28;20382;-82
2022/09/17 16:46:04;;;;;;;7.93;1.42;;;12.80;99.90;;;;;;5073065;28;20117;-82
2022/09/17 16:48:30;;;;;;;6.93;1.30;;;12.70;99.90;;;;;;5074546;28;20044;-81
2022/09/17 16:50:56;;;;;;;4.03;1.25;;;12.60;99.90;;;;;;5103048;28;20036;-81
2022/09/17 16:53:22;;;;;;;9.27;1.10;;;12.50;99.90;;;;;;5073235;28;20372;-82
2022/09/17 16:55:47;;;;;;;3.53;0.93;;;12.40;99.90;;;;;;5069404;28;20047;-82
2022/09/17 16:58:13;;;;;;;6.22;0.93;;;12.30;99.90;;;;;;5073740;28;20063;-82
2022/09/17 17:00:42;;;;;;;2.85;0.98;;;12.20;99.90;;;;;;5072662;28;20056;-83
2022/09/17 17:03:11;;;;;;;6.28;0.85;;;12.10;99.90;;;;;;5072261;28;20090;-82
2022/09/17 17:05:37;;;;;;;5.20;0.95;;;12.00;99.90;;;;;;5070198;28;20391;-82
2022/09/17 17:08:04;;;;;;;6.45;0.85;;;12.00;99.90;;;;;;5076684;28;20048;-82
2022/09/17 17:10:29;;;;;;;3.97;0.90;;;12.00;99.90;;;;;;5072865;28;20052;-83
2022/09/17 17:12:56;;;;;;;4.10;1.02;;;12.00;99.90;;;;;;5072857;28;20037;-83
2022/09/17 17:15:22;;;;;;;6.53;1.13;;;12.00;99.90;;;;;;5076053;28;20508;-83
2022/09/17 17:17:48;;;;;;;7.03;1.10;;;11.90;99.90;;;;;;5076845;28;20478;-82
2022/09/17 17:20:15;;;;;;;4.68;0.73;;;11.80;99.90;;;;;;5072507;28;20045;-82
2022/09/17 17:22:42;;;;;;;2.92;0.88;;;11.80;99.90;;;;;;5073955;28;20049;-84
2022/09/17 17:25:09;;;;;;;3.33;0.77;;;11.70;99.90;;;;;;5074415;28;20047;-86
2022/09/17 17:27:37;;;;;;;10.18;1.98;;;11.70;99.90;;;;;;5075561;28;20066;-82
2022/09/17 17:30:05;;;;;;;11.70;2.33;;;11.70;99.90;;;;;;5074714;28;20045;-82
2022/09/17 17:32:35;;;;;;;75.25;47.53;;;11.70;99.90;;;;;;5070116;28;20047;-82
2022/09/17 17:35:02;;;;;;;7.00;2.35;;;11.60;99.90;;;;;;5074438;28;20117;-83
2022/09/17 17:37:28;;;;;;;7.75;1.50;;;11.70;99.90;;;;;;5089877;28;20056;-82
2022/09/17 17:39:53;;;;;;;6.65;1.00;;;11.60;99.90;;;;;;5090901;28;20052;-82
2022/09/17 17:42:20;;;;;;;6.65;1.45;;;11.60;99.90;;;;;;5089679;28;20040;-81
2022/09/17 17:44:46;;;;;;;13.00;1.10;;;11.60;99.90;;;;;;5084181;28;20076;-83
2022/09/17 17:47:13;;;;;;;7.25;1.50;;;11.60;99.90;;;;;;5080585;28;20547;-82
2022/09/17 17:49:39;;;;;;;9.07;1.50;;;11.60;99.90;;;;;;5066570;28;20058;-86
2022/09/17 17:52:04;;;;;;;7.25;2.13;;;11.60;99.90;;;;;;5073877;28;20139;-82
2022/09/17 17:54:30;;;;;;;7.38;1.38;;;11.60;99.90;;;;;;5077786;28;20055;-83
2022/09/17 17:56:56;;;;;;;4.10;0.73;;;11.60;99.90;;;;;;5077796;28;20048;-83
2022/09/17 17:59:22;;;;;;;6.13;0.70;;;11.60;99.90;;;;;;5076916;28;20044;-83
2022/09/17 18:01:48;;;;;;;5.13;1.15;;;11.50;99.90;;;;;;5074339;28;20041;-86
2022/09/17 18:04:13;;;;;;;6.15;1.05;;;11.50;99.90;;;;;;5109943;27;20161;-83
2022/09/17 18:06:39;;;;;;;5.68;0.90;;;11.40;99.90;;;;;;5075932;28;20043;-83
2022/09/17 18:09:05;;;;;;;2.28;0.57;;;11.40;99.90;;;;;;5068025;28;20172;-82
2022/09/17 18:11:32;;;;;;;4.43;0.80;;;11.30;99.90;;;;;;5077571;28;20396;-83
2022/09/17 18:14:00;;;;;;;3.28;0.98;;;11.20;99.90;;;;;;5074720;28;20390;-83
2022/09/17 18:16:27;;;;;;;3.17;0.60;;;11.10;99.90;;;;;;5075137;28;20040;-84
2022/09/17 18:18:56;;;;;;;4.32;0.88;;;11.10;99.90;;;;;;5079911;28;20505;-82
2022/09/17 18:21:22;;;;;;;2.60;0.50;;;11.00;99.90;;;;;;5093326;28;20060;-82
2022/09/17 18:23:49;;;;;;;6.03;2.08;;;10.90;99.90;;;;;;5083712;28;20048;-82
2022/09/17 18:26:24;;;;;;;2.03;0.65;;;10.90;99.90;;;;;;5084014;28;20425;-85
2022/09/17 18:28:50;;;;;;;3.80;0.70;;;10.80;99.90;;;;;;5079896;28;20072;-82
2022/09/17 18:31:25;;;;;;;2.17;0.85;;;10.80;99.90;;;;;;5088080;28;20032;-82
2022/09/17 18:34:15;;;;;;;9.88;1.35;;;10.70;99.90;;;;;;5085904;28;20341;-87
2022/09/17 18:36:44;;;;;;;2.72;0.68;;;10.70;99.90;;;;;;5056493;28;20105;-82
2022/09/17 18:39:13;;;;;;;14.82;5.10;;;10.60;99.90;;;;;;5091728;28;20048;-81
2022/09/17 18:41:44;;;;;;;3.35;1.27;;;10.50;99.90;;;;;;5116437;27;20055;-82
2022/09/17 18:44:10;;;;;;;2.53;0.85;;;10.60;99.90;;;;;;5080759;28;20036;-80
2022/09/17 18:46:41;;;;;;;7.75;1.52;;;10.60;99.90;;;;;;5072994;28;20260;-81
2022/09/17 18:49:07;;;;;;;3.03;0.70;;;10.70;99.90;;;;;;5077859;28;20130;-82
2022/09/17 18:51:33;;;;;;;7.93;0.95;;;10.70;99.90;;;;;;5076571;28;20127;-81
2022/09/17 18:53:59;;;;;;;4.90;0.70;;;10.80;99.90;;;;;;5061446;28;20048;-84
2022/09/17 18:56:27;;;;;;;6.40;1.00;;;10.70;99.90;;;;;;5081681;28;20384;-80
2022/09/17 18:58:55;;;;;;;6.47;1.95;;;10.80;99.90;;;;;;5090282;28;20041;-81
2022/09/17 19:01:24;;;;;;;6.55;1.27;;;10.80;99.90;;;;;;5059877;28;20086;-83
2022/09/17 19:03:50;;;;;;;3.78;0.60;;;10.80;99.90;;;;;;5078593;28;20134;-83
2022/09/17 19:06:16;;;;;;;5.68;0.90;;;10.70;99.90;;;;;;5066377;28;20056;-82
2022/09/17 19:08:43;;;;;;;8.02;1.38;;;10.70;99.90;;;;;;5081834;28;20047;-83
2022/09/17 19:11:10;;;;;;;3.30;0.60;;;10.70;99.90;;;;;;5080089;28;20469;-83
2022/09/17 19:13:45;;;;;;;17.42;3.15;;;10.70;99.90;;;;;;5080270;28;20039;-82
2022/09/17 19:16:13;;;;;;;3.83;0.73;;;10.70;99.90;;;;;;5080778;28;20086;-82
2022/09/17 19:18:39;;;;;;;5.07;1.27;;;10.70;99.90;;;;;;5075519;28;20049;-81
2022/09/17 19:21:10;;;;;;;7.70;0.80;;;10.80;99.90;;;;;;5077352;28;20259;-84
2022/09/17 19:23:39;;;;;;;2.83;0.45;;;10.80;99.90;;;;;;5082964;28;20083;-82
2022/09/17 19:26:11;;;;;;;4.80;0.43;;;10.80;99.90;;;;;;5078048;28;20065;-81
2022/09/17 19:28:43;;;;;;;5.65;1.67;;;10.80;99.90;;;;;;5061983;28;20131;-82
2022/09/17 19:31:12;;;;;;;3.17;0.50;;;10.80;99.90;;;;;;5079923;28;20059;-81
2022/09/17 19:33:39;;;;;;;3.60;0.35;;;10.80;99.90;;;;;;5085552;28;20173;-82
2022/09/17 19:36:09;;;;;;;3.05;0.80;;;10.90;99.90;;;;;;5081763;28;20443;-82
2022/09/17 19:38:36;;;;;;;3.90;0.43;;;10.90;99.90;;;;;;5071261;28;20506;-82
2022/09/17 19:41:06;;;;;;;3.55;0.70;;;10.90;99.90;;;;;;5079838;28;20083;-81
2022/09/17 19:43:32;;;;;;;6.22;0.70;;;10.90;99.90;;;;;;5079867;28;20078;-81
2022/09/17 19:46:04;;;;;;;8.52;2.40;;;11.00;99.90;;;;;;5116409;27;20530;-82
2022/09/17 19:48:30;;;;;;;3.83;0.90;;;10.90;99.90;;;;;;5078177;28;20087;-88
2022/09/17 19:50:56;;;;;;;7.60;1.67;;;10.90;99.90;;;;;;5077829;28;20063;-82
2022/09/17 19:53:22;;;;;;;2.60;0.82;;;10.90;99.90;;;;;;5082482;28;20121;-80
2022/09/17 19:55:48;;;;;;;5.78;1.00;;;10.90;99.90;;;;;;5085099;28;20051;-81
2022/09/17 19:58:15;;;;;;;3.63;0.60;;;10.80;99.90;;;;;;5083466;28;20045;-85
2022/09/17 20:00:41;;;;;;;4.53;0.73;;;10.90;99.90;;;;;;5058530;28;20079;-82
2022/09/17 20:03:08;;;;;;;3.35;0.50;;;10.80;99.90;;;;;;5090488;28;20047;-80
2022/09/17 20:05:35;;;;;;;6.38;0.80;;;10.80;99.90;;;;;;5078161;28;20044;-83
2022/09/17 20:08:02;;;;;;;4.30;0.77;;;10.70;99.90;;;;;;5078581;28;20123;-85
2022/09/17 20:10:28;;;;;;;4.57;0.70;;;10.70;99.90;;;;;;5083384;28;20194;-84
2022/09/17 20:12:55;;;;;;;10.18;1.75;;;10.70;99.90;;;;;;5057343;28;20032;-80
2022/09/17 20:15:22;;;;;;;4.60;0.70;;;10.70;99.90;;;;;;5077873;28;20033;-82
2022/09/17 20:17:48;;;;;;;3.30;0.85;;;10.70;99.90;;;;;;5082087;28;20051;-82
2022/09/17 20:20:14;;;;;;;5.32;1.00;;;10.70;99.90;;;;;;5082141;28;20041;-86
2022/09/17 20:22:39;;;;;;;2.33;0.57;;;10.70;99.90;;;;;;5081971;28;20050;-82
2022/09/17 20:25:06;;;;;;;2.90;0.60;;;10.70;99.90;;;;;;5078967;28;20033;-81
2022/09/17 20:27:32;;;;;;;10.10;0.82;;;10.60;99.90;;;;;;5062303;28;20052;-80
2022/09/17 20:29:59;;;;;;;2.50;0.57;;;10.50;99.90;;;;;;5088483;28;20119;-81
2022/09/17 20:32:24;;;;;;;4.88;0.93;;;10.50;99.90;;;;;;5083348;28;20110;-87
2022/09/17 20:34:50;;;;;;;3.88;0.98;;;10.50;99.90;;;;;;5083342;28;20040;-82
2022/09/17 20:37:16;;;;;;;6.47;0.55;;;10.50;99.90;;;;;;5078719;28;20486;-82
2022/09/17 20:39:42;;;;;;;1.73;0.52;;;10.50;99.90;;;;;;5059284;28;20049;-81
2022/09/17 20:42:13;;;;;;;7.22;0.77;;;10.50;99.90;;;;;;5083482;28;20112;-81
2022/09/17 20:44:39;;;;;;;4.80;0.93;;;10.50;99.90;;;;;;5081062;28;20542;-83
2022/09/17 20:47:05;;;;;;;4.82;0.50;;;10.50;99.90;;;;;;5081599;28;20120;-82
2022/09/17 20:49:34;;;;;;;8.07;0.80;;;10.60;99.90;;;;;;5107377;28;20497;-81
2022/09/17 20:52:02;;;;;;;11.55;1.10;;;10.60;99.90;;;;;;5083074;28;20044;-85
2022/09/17 20:54:30;;;;;;;2.00;0.82;;;10.60;99.90;;;;;;5083069;28;20612;-83
2022/09/17 20:56:56;;;;;;;5.28;1.13;;;10.60;99.90;;;;;;5082056;28;20048;-82
2022/09/17 20:59:28;;;;;;;8.68;1.00;;;10.60;99.90;;;;;;5065832;28;20074;-84
2022/09/17 21:01:54;;;;;;;;;;;10.50;99.90;;;;;;5078366;28;20076;-87
2022/09/17 21:04:22;;;;;;;4.30;1.02;;;10.50;99.90;;;;;;5114162;28;19978;-81
2022/09/17 21:06:51;;;;;;;7.30;0.90;;;10.40;99.90;;;;;;5077584;28;20064;-82
2022/09/17 21:09:17;;;;;;;8.88;1.05;;;10.40;99.90;;;;;;5081657;28;20040;-81
2022/09/17 21:11:44;;;;;;;1.83;0.65;;;10.30;99.90;;;;;;5082010;28;20050;-80
2022/09/17 21:14:10;;;;;;;4.53;0.98;;;10.30;99.90;;;;;;5074837;28;20053;-83
2022/09/17 21:16:37;;;;;;;2.92;0.50;;;10.30;99.90;;;;;;5081331;28;20047;-83
2022/09/17 21:19:07;;;;;;;3.67;0.55;;;10.30;99.90;;;;;;5080434;28;20039;-81
2022/09/17 21:21:34;;;;;;;4.72;0.80;;;10.30;99.90;;;;;;5048882;28;20082;-82
2022/09/17 21:24:01;;;;;;;4.20;0.77;;;10.30;99.90;;;;;;5085636;28;20047;-82
2022/09/17 21:26:27;;;;;;;4.40;0.90;;;10.30;99.90;;;;;;5078937;28;20078;-85
2022/09/17 21:28:55;;;;;;;8.30;1.17;;;10.30;99.90;;;;;;5082643;28;20546;-83
2022/09/17 21:31:23;;;;;;;4.60;1.02;;;10.20;99.90;;;;;;5070964;28;20055;-80
2022/09/17 21:33:58;;;;;;;4.25;0.80;;;10.20;99.90;;;;;;5088612;28;20437;-83
2022/09/17 21:36:27;;;;;;;6.97;0.95;;;10.20;99.90;;;;;;5087422;28;20505;-80
2022/09/17 21:38:54;;;;;;;4.85;0.90;;;10.30;99.90;;;;;;5063123;28;20065;-84
2022/09/17 21:41:21;;;;;;;9.63;0.90;;;10.20;99.90;;;;;;5083165;28;20049;-79
2022/09/17 21:43:50;;;;;;;2.92;0.70;;;10.20;99.90;;;;;;5110926;28;20044;-82
2022/09/17 21:46:22;;;;;;;2.08;0.70;;;10.20;99.90;;;;;;5079933;28;20093;-80
2022/09/17 21:48:56;;;;;;;6.53;1.10;;;10.30;99.90;;;;;;5062892;28;20048;-80
2022/09/17 21:51:24;;;;;;;6.63;1.05;;;10.30;99.90;;;;;;5063390;28;20041;-78
2022/09/17 21:53:53;;;;;;;2.83;0.80;;;10.30;99.90;;;;;;5097194;28;20482;-80
2022/09/17 21:56:21;;;;;;;4.35;0.73;;;10.30;99.90;;;;;;5083416;28;20060;-79
2022/09/17 21:59:03;;;;;;;3.85;0.85;;;10.40;99.90;;;;;;5086203;28;20028;-80
2022/09/17 22:01:42;;;;;;;4.68;1.25;;;10.50;99.90;;;;;;5081828;28;20060;-81
2022/09/17 22:04:11;;;;;;;5.25;0.73;;;10.50;99.90;;;;;;5084952;28;20372;-81
2022/09/17 22:06:39;;;;;;;3.83;0.70;;;10.40;99.90;;;;;;5078596;28;20073;-86
2022/09/17 22:09:07;;;;;;;3.83;0.70;;;10.40;99.90;;;;;;5070315;28;20052;-80
2022/09/17 22:11:35;;;;;;;1.80;0.52;;;10.40;99.90;;;;;;5079539;28;20151;-79
2022/09/17 22:14:21;;;;;;;7.78;1.05;;;10.40;99.90;;;;;;5084420;28;20032;-80
2022/09/17 22:16:55;;;;;;;4.68;0.82;;;10.30;99.90;;;;;;5084094;28;20052;-83
2022/09/17 22:19:23;;;;;;;7.75;0.93;;;10.20;99.90;;;;;;5112939;27;20127;-80
2022/09/17 22:21:51;;;;;;;2.67;0.70;;;10.10;99.90;;;;;;5083706;28;20663;-84
2022/09/17 22:24:23;;;;;;;8.20;1.02;;;10.10;99.90;;;;;;5084029;28;20043;-80
2022/09/17 22:26:51;;;;;;;5.18;0.98;;;10.00;99.90;;;;;;5077924;28;20048;-82
2022/09/17 22:29:19;;;;;;;2.55;0.60;;;10.00;99.90;;;;;;5083172;28;20044;-80
2022/09/17 22:31:46;;;;;;;6.00;0.80;;;9.90;99.90;;;;;;5085924;28;20048;-80
2022/09/17 22:34:17;;;;;;;3.85;0.55;;;9.90;99.90;;;;;;5088853;28;20484;-79
2022/09/17 22:36:44;;;;;;;4.35;0.75;;;9.80;99.90;;;;;;5087461;28;20032;-81
2022/09/17 22:39:19;;;;;;;6.43;2.10;;;9.80;99.90;;;;;;5080945;28;20471;-81
2022/09/17 22:41:45;;;;;;;3.08;0.60;;;9.80;99.90;;;;;;5086904;28;20105;-81
2022/09/17 22:44:16;;;;;;;3.13;0.63;;;9.80;99.90;;;;;;5082311;28;20119;-82
2022/09/17 22:46:42;;;;;;;3.22;0.60;;;9.70;99.90;;;;;;5081971;28;20059;-82
2022/09/17 22:49:10;;;;;;;3.50;0.90;;;9.70;99.90;;;;;;5079807;28;20094;-81
2022/09/17 22:51:35;;;;;;;8.13;0.75;;;9.70;99.90;;;;;;5082173;28;20078;-81
2022/09/17 22:54:01;;;;;;;4.57;0.73;;;9.80;99.90;;;;;;5086721;28;20130;-80
2022/09/17 22:56:28;;;;;;;9.15;0.93;;;9.80;99.90;;;;;;5082421;28;20060;-78
2022/09/17 22:58:57;;;;;;;6.22;0.80;;;9.80;99.90;;;;;;5082368;28;20052;-81
2022/09/17 23:01:27;;;;;;;2.60;0.60;;;9.80;99.90;;;;;;5080620;28;20051;-84
2022/09/17 23:03:53;;;;;;;2.08;0.68;;;9.80;99.90;;;;;;5086538;28;20105;-80
2022/09/17 23:06:24;;;;;;;5.38;1.17;;;9.90;99.90;;;;;;5088825;28;20039;-80
2022/09/17 23:08:50;;;;;;;4.20;0.93;;;9.90;99.90;;;;;;5084512;28;20063;-81
2022/09/17 23:11:20;;;;;;;7.63;0.88;;;9.90;99.90;;;;;;5086577;28;20055;-82
2022/09/17 23:13:47;;;;;;;5.85;1.27;;;10.00;99.90;;;;;;5082176;28;20498;-80
2022/09/17 23:16:14;;;;;;;10.00;0.75;;;10.00;99.90;;;;;;5082787;28;20442;-81
2022/09/17 23:18:40;;;;;;;10.05;0.63;;;10.10;99.90;;;;;;5081628;28;21465;-81
2022/09/17 23:21:16;;;;;;;4.55;1.00;;;10.10;99.90;;;;;;5080976;28;20461;-82
2022/09/17 23:23:44;;;;;;;3.75;0.75;;;10.10;99.90;;;;;;5074780;28;20077;-82
2022/09/17 23:26:13;;;;;;;8.07;0.80;;;10.20;99.90;;;;;;5082297;28;20040;-81
2022/09/17 23:28:39;;;;;;;6.90;1.05;;;10.30;99.90;;;;;;5083106;28;20607;-86
2022/09/17 23:31:07;;;;;;;3.88;1.25;;;10.40;99.90;;;;;;5080867;28;20040;-81
2022/09/17 23:33:33;;;;;;;11.15;1.30;;;10.40;99.90;;;;;;5078704;28;20052;-81
2022/09/17 23:36:06;;;;;;;9.32;1.20;;;10.40;99.90;;;;;;5086753;28;20043;-81
2022/09/17 23:38:32;;;;;;;10.15;0.98;;;10.50;99.90;;;;;;5082130;28;20048;-82
2022/09/17 23:41:16;;;;;;;11.32;1.77;;;10.40;99.90;;;;;;5085282;28;20053;-80
2022/09/17 23:43:44;;;;;;;8.55;1.00;;;10.40;99.90;;;;;;5080013;28;20044;-81
2022/09/17 23:46:10;;;;;;;13.60;1.38;;;10.40;99.90;;;;;;5083781;28;20058;-80
2022/09/17 23:48:36;;;;;;;10.77;1.33;;;10.30;99.90;;;;;;5084713;28;20339;-81
2022/09/17 23:51:03;;;;;;;8.63;0.90;;;10.30;99.90;;;;;;5082452;28;20044;-83
2022/09/17 23:53:29;;;;;;;8.98;1.10;;;10.30;99.90;;;;;;5083479;28;20079;-81
2022/09/17 23:55:55;;;;;;;8.48;1.10;;;10.30;99.90;;;;;;5083367;28;20395;-81
2022/09/17 23:58:21;;;;;;;14.90;1.35;;;10.20;99.90;;;;;;5084477;28;20059;-84
